createdAt,value
2022-10-08T00:00:47.148Z,99.99
2022-10-08T00:05:47.003Z,99.99
2022-10-08T00:10:46.932Z,99.99
2022-10-08T00:15:46.940Z,99.99
2022-10-08T00:20:46.807Z,99.99
2022-10-08T00:25:46.749Z,99.99
2022-10-08T00:30:46.645Z,99.99
2022-10-08T00:35:46.586Z,99.99
2022-10-08T00:40:46.519Z,99.99
2022-10-08T00:45:46.518Z,99.99
2022-10-08T00:50:46.686Z,99.99
2022-10-08T00:55:46.313Z,99.99
2022-10-08T01:00:46.328Z,99.99
2022-10-08T01:05:46.187Z,99.99
2022-10-08T01:10:46.120Z,99.99
2022-10-08T01:15:46.056Z,99.99
2022-10-08T01:20:46.090Z,99.99
2022-10-08T01:25:45.935Z,99.99
2022-10-08T01:30:45.847Z,99.99
2022-10-08T01:35:45.804Z,99.99
2022-10-08T01:40:45.726Z,99.99
2022-10-08T01:45:45.692Z,99.99
2022-10-08T01:50:45.609Z,99.99
2022-10-08T01:55:45.544Z,99.99
2022-10-08T02:00:45.546Z,99.85
2022-10-08T02:05:45.406Z,99.54
2022-10-08T02:10:45.353Z,99.54
2022-10-08T02:15:45.303Z,99.40
2022-10-08T02:20:45.206Z,99.29
2022-10-08T02:25:45.191Z,99.29
2022-10-08T02:30:45.068Z,98.99
2022-10-08T02:35:44.998Z,98.99
2022-10-08T02:40:44.936Z,98.79
2022-10-08T02:45:44.895Z,98.99
2022-10-08T02:50:51.853Z,98.99
2022-10-08T02:55:44.732Z,98.48
2022-10-08T03:00:44.702Z,98.48
2022-10-08T03:05:44.603Z,98.23
2022-10-08T03:10:44.563Z,98.02
2022-10-08T03:15:44.504Z,97.82
2022-10-08T03:20:44.411Z,97.62
2022-10-08T03:25:44.382Z,97.27
2022-10-08T03:30:44.358Z,97.16
2022-10-08T03:35:44.216Z,97.27
2022-10-08T03:40:44.155Z,97.37
2022-10-08T03:45:44.133Z,97.47
2022-10-08T03:50:44.038Z,97.27
2022-10-08T03:55:43.963Z,96.92
2022-10-08T04:00:43.903Z,96.61
2022-10-08T04:05:43.830Z,96.51
2022-10-08T04:10:43.774Z,96.87
2022-10-08T04:15:43.754Z,96.15
2022-10-08T04:20:43.644Z,96.36
2022-10-08T04:25:43.591Z,95.54
2022-10-08T04:30:43.611Z,95.04
2022-10-08T04:35:43.622Z,95.20
2022-10-08T04:40:43.373Z,94.89
2022-10-08T04:45:43.320Z,94.93
2022-10-08T04:50:43.270Z,95.09
2022-10-08T04:55:43.179Z,95.24
2022-10-08T05:00:43.152Z,95.61
2022-10-08T05:05:43.056Z,95.30
2022-10-08T05:10:43.015Z,95.50
2022-10-08T05:15:42.949Z,95.09
2022-10-08T05:20:42.871Z,95.09
2022-10-08T05:25:42.808Z,94.79
2022-10-08T05:30:42.735Z,95.04
2022-10-08T05:35:42.682Z,95.20
2022-10-08T05:40:42.768Z,95.24
2022-10-08T05:45:42.516Z,95.20
2022-10-08T05:50:42.472Z,94.79
2022-10-08T05:55:43.118Z,94.69
2022-10-08T06:00:42.339Z,95.20
2022-10-08T06:05:42.297Z,95.30
2022-10-08T06:10:42.268Z,95.81
2022-10-08T06:15:42.109Z,95.70
2022-10-08T06:20:42.052Z,95.66
2022-10-08T06:25:41.999Z,95.05
2022-10-08T06:30:41.920Z,94.09
2022-10-08T06:35:41.848Z,94.09
2022-10-08T06:40:41.780Z,93.99
2022-10-08T06:45:41.822Z,94.20
2022-10-08T06:50:41.662Z,94.20
2022-10-08T06:55:41.638Z,94.40
2022-10-08T07:00:41.658Z,94.35
2022-10-08T07:05:41.460Z,94.45
2022-10-08T07:10:41.525Z,94.05
2022-10-08T07:15:41.382Z,93.40
2022-10-08T07:20:41.264Z,92.64
2022-10-08T07:25:41.202Z,91.38
2022-10-08T07:30:41.126Z,90.08
2022-10-08T07:35:41.054Z,87.46
2022-10-08T07:40:41.022Z,84.95
2022-10-08T07:45:41.003Z,83.05
2022-10-08T07:50:40.888Z,80.35
2022-10-08T07:55:40.824Z,77.39
2022-10-08T08:00:41.041Z,76.64
2022-10-08T08:05:40.732Z,76.87
2022-10-08T08:10:40.659Z,72.94
2022-10-08T08:15:40.568Z,73.21
2022-10-08T08:20:40.553Z,72.54
2022-10-08T08:25:40.440Z,67.71
2022-10-08T08:30:40.645Z,65.73
2022-10-08T08:35:40.267Z,64.73
2022-10-08T08:40:40.633Z,66.77
2022-10-08T08:45:48.007Z,66.34
2022-10-08T08:50:43.541Z,66.40
2022-10-08T08:55:41.040Z,67.17
2022-10-08T09:00:40.039Z,67.60
2022-10-08T09:05:39.914Z,66.87
2022-10-08T09:10:39.832Z,66.71
2022-10-08T09:15:39.890Z,63.82
2022-10-08T09:20:40.461Z,65.20
2022-10-08T09:25:39.675Z,64.90
2022-10-08T09:30:39.662Z,64.86
2022-10-08T09:35:39.488Z,64.26
2022-10-08T09:40:39.445Z,64.59
2022-10-08T09:45:39.423Z,63.42
2022-10-08T09:50:39.293Z,62.89
2022-10-08T09:55:39.249Z,63.59
2022-10-08T10:00:39.165Z,64.46
2022-10-08T10:05:39.141Z,64.16
2022-10-08T10:10:39.084Z,65.09
2022-10-08T10:15:38.988Z,65.30
2022-10-08T10:20:38.893Z,65.59
2022-10-08T10:25:38.911Z,66.71
2022-10-08T10:30:38.840Z,66.43
2022-10-08T10:35:38.716Z,66.91
2022-10-08T10:40:38.686Z,64.16
2022-10-08T10:45:38.731Z,64.33
2022-10-08T10:50:38.602Z,61.82
2022-10-08T10:55:38.444Z,61.79
2022-10-08T11:00:38.488Z,61.96
2022-10-08T11:05:38.360Z,60.65
2022-10-08T11:10:38.229Z,60.85
2022-10-08T11:15:38.226Z,57.71
2022-10-08T11:20:38.134Z,57.81
2022-10-08T11:25:55.993Z,55.40
2022-10-08T11:30:39.018Z,56.71
2022-10-08T11:35:37.905Z,58.31
2022-10-08T11:40:37.919Z,56.18
2022-10-08T11:45:37.816Z,60.93
2022-10-08T11:50:37.725Z,54.70
2022-10-08T11:55:37.654Z,55.05
2022-10-08T12:00:37.592Z,54.72
2022-10-08T12:05:37.704Z,56.23
2022-10-08T12:10:37.517Z,54.33
2022-10-08T12:15:37.452Z,55.33
2022-10-08T12:20:37.367Z,57.39
2022-10-08T12:25:37.255Z,56.36
2022-10-08T12:30:37.215Z,57.50
2022-10-08T12:35:37.297Z,58.33
2022-10-08T12:40:37.141Z,58.25
2022-10-08T12:45:37.094Z,57.04
2022-10-08T12:50:37.006Z,56.51
2022-10-08T12:55:38.223Z,57.74
2022-10-08T13:00:36.870Z,56.63
2022-10-08T13:05:36.720Z,56.18
2022-10-08T13:10:36.851Z,56.41
2022-10-08T13:15:36.599Z,56.91
2022-10-08T13:20:36.542Z,57.37
2022-10-08T13:25:36.475Z,57.11
2022-10-08T13:30:36.422Z,56.30
2022-10-08T13:35:36.369Z,54.88
2022-10-08T13:40:36.284Z,57.77
2022-10-08T13:45:36.214Z,57.64
2022-10-08T13:50:36.141Z,59.20
2022-10-08T13:55:36.077Z,56.63
2022-10-08T14:00:36.034Z,57.42
2022-10-08T14:05:35.990Z,57.11
2022-10-08T14:10:35.877Z,59.27
2022-10-08T14:15:35.909Z,62.27
2022-10-08T14:20:35.859Z,62.98
2022-10-08T14:25:35.696Z,63.48
2022-10-08T14:30:35.616Z,67.33
2022-10-08T14:35:35.542Z,67.67
2022-10-08T14:40:35.482Z,66.50
2022-10-08T14:45:35.473Z,67.33
2022-10-08T14:50:35.371Z,68.17
2022-10-08T14:55:49.204Z,67.03
2022-10-08T15:00:36.299Z,68.27
2022-10-08T15:05:35.163Z,66.27
2022-10-08T15:10:35.130Z,67.94
2022-10-08T15:15:35.034Z,69.68
2022-10-08T15:20:35.016Z,68.80
2022-10-08T15:25:34.905Z,69.04
2022-10-08T15:30:34.919Z,69.48
2022-10-08T15:35:34.783Z,72.44
2022-10-08T15:40:34.743Z,75.72
2022-10-08T15:45:34.700Z,77.07
2022-10-08T15:50:34.592Z,78.12
2022-10-08T15:55:34.515Z,78.93
2022-10-08T16:00:37.952Z,79.68
2022-10-08T16:05:34.434Z,81.40
2022-10-08T16:10:34.317Z,82.35
2022-10-08T16:15:34.271Z,82.76
2022-10-08T16:20:34.234Z,82.80
2022-10-08T16:25:34.337Z,82.90
2022-10-08T16:30:34.731Z,83.31
2022-10-08T16:35:33.999Z,83.61
2022-10-08T16:40:33.949Z,85.17
2022-10-08T16:45:33.850Z,86.57
2022-10-08T16:50:33.810Z,87.63
2022-10-08T16:55:33.712Z,88.69
2022-10-08T17:00:33.741Z,89.64
2022-10-08T17:05:33.603Z,90.91
2022-10-08T17:10:33.587Z,90.91
2022-10-08T17:15:33.555Z,92.18
2022-10-08T17:20:33.495Z,92.58
2022-10-08T17:25:33.335Z,93.03
2022-10-08T17:30:33.463Z,94.30
2022-10-08T17:35:33.180Z,94.40
2022-10-08T17:40:33.132Z,94.71
2022-10-08T17:45:33.060Z,95.01
2022-10-08T17:50:40.106Z,95.26
2022-10-08T17:55:32.970Z,95.42
2022-10-08T18:00:32.867Z,94.20
2022-10-08T18:05:32.786Z,93.99
2022-10-08T18:10:33.806Z,93.89
2022-10-08T18:15:32.723Z,93.48
2022-10-08T18:20:32.753Z,93.69
2022-10-08T18:25:32.537Z,93.69
2022-10-08T18:30:32.455Z,92.05
2022-10-08T18:35:32.620Z,92.93
2022-10-08T18:40:32.375Z,91.36
2022-10-08T18:45:32.315Z,90.34
2022-10-08T18:50:32.198Z,89.36
2022-10-08T18:55:32.195Z,89.87
2022-10-08T19:00:32.067Z,89.92
2022-10-08T19:05:32.046Z,89.75
2022-10-08T19:10:32.017Z,90.26
2022-10-08T19:15:31.967Z,90.61
2022-10-08T19:20:31.853Z,91.12
2022-10-08T19:25:31.760Z,92.33
2022-10-08T19:30:32.894Z,92.94
2022-10-08T19:35:31.713Z,93.40
2022-10-08T19:40:31.920Z,92.78
2022-10-08T19:45:31.589Z,92.17
2022-10-08T19:50:31.423Z,91.66
2022-10-08T19:55:31.414Z,91.29
2022-10-08T20:00:32.377Z,91.60
2022-10-08T20:05:31.260Z,91.39
2022-10-08T20:10:31.161Z,91.64
2022-10-08T20:15:31.148Z,92.10
2022-10-08T20:20:33.594Z,92.34
2022-10-08T20:25:31.027Z,93.10
2022-10-08T20:30:30.891Z,92.49
2022-10-08T20:35:30.873Z,93.30
2022-10-08T20:40:30.797Z,92.90
2022-10-08T20:45:30.871Z,93.20
2022-10-08T20:50:30.661Z,92.79
2022-10-08T20:55:30.602Z,93.00
2022-10-08T21:00:30.535Z,93.00
2022-10-08T21:05:30.481Z,92.69
2022-10-08T21:10:30.370Z,92.28
2022-10-08T21:15:30.293Z,92.94
2022-10-08T21:20:30.231Z,93.55
2022-10-08T21:25:30.155Z,94.11
2022-10-08T21:30:30.102Z,94.01
2022-10-08T21:35:30.025Z,94.01
2022-10-08T21:40:29.972Z,94.56
2022-10-08T21:45:29.960Z,94.11
2022-10-08T21:50:32.953Z,94.27
2022-10-08T21:55:30.783Z,93.70
2022-10-08T22:00:29.766Z,94.11
2022-10-08T22:05:30.051Z,94.36
2022-10-08T22:10:31.240Z,94.32
2022-10-08T22:15:29.583Z,94.05
2022-10-08T22:20:29.475Z,94.87
2022-10-08T22:25:29.420Z,95.23
2022-10-08T22:30:29.276Z,96.60
2022-10-08T22:35:29.301Z,97.12
2022-10-08T22:40:29.264Z,98.50
2022-10-08T22:45:29.157Z,99.21
2022-10-08T22:50:29.092Z,99.01
2022-10-08T22:55:29.184Z,99.05
2022-10-08T23:00:28.952Z,99.88
2022-10-08T23:05:28.943Z,99.88
2022-10-08T23:10:28.847Z,99.99
2022-10-08T23:15:29.609Z,99.93
2022-10-08T23:20:28.634Z,99.99
2022-10-08T23:25:28.653Z,99.99
2022-10-08T23:30:42.497Z,99.88
2022-10-08T23:35:29.444Z,99.42
2022-10-08T23:40:28.375Z,98.54
2022-10-08T23:45:28.343Z,98.90
2022-10-08T23:50:28.246Z,99.77
2022-10-08T23:55:28.207Z,98.59
